Time;durP1;ratioP1;P1;durP2;ratioP2;P2;SDS_P1;SDS_P2;PMS_P1;PMS_P2;Temp;Humidity;BMP_temperature;BMP_pressure;BME280_temperature;BME280_humidity;BME280_pressure;Samples;Min_cycle;Max_cycle;Signal;HPM_P1;HPM_P2
2022/05/15 00:04:38;;;;;;;15.27;5.83;;;;;;;12.24;100.00;102032.81;10252286;28;20047;-68
2022/05/15 00:09:41;;;;;;;21.15;5.55;;;;;;;12.18;100.00;102030.47;10252131;28;20052;-68
2022/05/15 00:14:44;;;;;;;25.02;6.88;;;;;;;12.01;100.00;102025.97;10250926;28;20051;-68
2022/05/15 00:19:46;;;;;;;21.55;6.72;;;;;;;12.01;100.00;102019.88;10251288;28;20482;-69
2022/05/15 00:24:49;;;;;;;23.20;6.40;;;;;;;12.00;100.00;102026.91;10251386;29;20047;-68
2022/05/15 00:29:51;;;;;;;20.77;6.28;;;;;;;11.92;100.00;102017.63;10251332;28;20066;-68
2022/05/15 00:34:53;;;;;;;22.25;6.45;;;;;;;11.95;100.00;102026.22;10251423;29;20062;-68
2022/05/15 00:39:56;;;;;;;19.25;6.60;;;;;;;11.90;100.00;102017.66;10250111;29;20059;-68
2022/05/15 00:45:01;;;;;;;20.15;5.40;;;;;;;11.79;100.00;102015.50;10250308;29;20058;-68
2022/05/15 00:50:07;;;;;;;26.83;7.25;;;;;;;11.81;100.00;102021.53;10249815;28;20051;-68
2022/05/15 00:55:13;;;;;;;18.65;5.85;;;;;;;11.73;100.00;102007.91;10249946;28;20051;-68
2022/05/15 01:00:22;;;;;;;26.48;6.65;;;;;;;11.67;100.00;102010.81;10249501;28;20074;-68
2022/05/15 01:05:24;;;;;;;21.00;5.95;;;;;;;11.60;100.00;102009.34;10249018;28;20044;-68
2022/05/15 01:10:26;;;;;;;24.42;7.57;;;;;;;11.56;100.00;102007.78;10250217;29;20126;-68
2022/05/15 01:15:29;;;;;;;20.75;6.18;;;;;;;11.46;100.00;102005.53;10250108;28;20058;-68
2022/05/15 01:20:32;;;;;;;18.05;7.18;;;;;;;11.41;100.00;101999.63;10249829;28;20051;-68
2022/05/15 01:25:37;;;;;;;24.50;5.72;;;;;;;11.31;100.00;101998.28;10249779;28;20059;-68
2022/05/15 01:30:42;;;;;;;22.27;5.63;;;;;;;11.31;100.00;102003.53;10249470;28;20410;-68
2022/05/15 01:35:44;;;;;;;21.60;6.80;;;;;;;11.25;100.00;102006.44;10249666;29;20043;-68
2022/05/15 01:40:48;;;;;;;16.80;5.80;;;;;;;11.22;100.00;102007.41;10248728;29;20406;-69
2022/05/15 01:45:51;;;;;;;26.73;6.40;;;;;;;10.98;100.00;102009.25;10249097;29;20474;-62
2022/05/15 01:50:53;;;;;;;16.55;5.32;;;;;;;11.03;100.00;102009.91;10247189;28;20141;-62
2022/05/15 01:55:56;;;;;;;24.45;6.57;;;;;;;11.11;100.00;102002.59;10248471;28;20425;-68
2022/05/15 02:00:58;;;;;;;24.30;6.53;;;;;;;10.96;100.00;102004.06;10248273;28;20504;-68
2022/05/15 02:06:01;;;;;;;21.67;6.13;;;;;;;10.94;100.00;102003.28;10248479;28;20075;-68
2022/05/15 02:11:04;;;;;;;24.25;6.70;;;;;;;10.85;100.00;102000.16;10247921;29;20051;-68
2022/05/15 02:16:07;;;;;;;20.77;6.45;;;;;;;10.87;100.00;101991.31;10246683;28;20482;-68
2022/05/15 02:21:09;;;;;;;19.50;6.68;;;;;;;10.80;100.00;101994.25;10246848;28;20051;-67
2022/05/15 02:26:12;;;;;;;24.70;6.43;;;;;;;10.72;100.00;101991.94;10247917;28;20139;-67
2022/05/15 02:31:14;;;;;;;20.08;6.25;;;;;;;10.85;100.00;101989.69;10247476;28;20047;-68
2022/05/15 02:36:17;;;;;;;18.52;6.45;;;;;;;10.59;100.00;101986.28;10247857;28;20047;-68
2022/05/15 02:41:19;;;;;;;25.13;6.80;;;;;;;10.63;100.00;101982.66;10247241;28;20509;-67
2022/05/15 02:46:22;;;;;;;20.23;6.43;;;;;;;10.49;100.00;101984.94;10245656;28;20406;-67
2022/05/15 02:51:24;;;;;;;20.35;7.43;;;;;;;10.54;100.00;101983.00;10246934;29;20495;-67
2022/05/15 02:56:30;;;;;;;22.00;7.80;;;;;;;10.52;100.00;101987.44;10247456;29;20130;-67
2022/05/15 03:01:38;;;;;;;22.95;6.90;;;;;;;10.38;100.00;101995.84;10248057;29;20058;-67
2022/05/15 03:06:40;;;;;;;26.55;7.75;;;;;;;10.51;100.00;101981.38;10253424;28;20063;-67
2022/05/15 03:11:43;;;;;;;22.10;6.43;;;;;;;10.42;100.00;101992.19;10252696;28;20051;-67
2022/05/15 03:16:46;;;;;;;23.23;6.80;;;;;;;10.36;100.00;101992.44;10253492;28;20047;-67
2022/05/15 03:21:48;;;;;;;24.65;7.25;;;;;;;10.30;100.00;101987.38;10253658;29;20055;-67
2022/05/15 03:26:50;;;;;;;21.85;6.78;;;;;;;10.22;100.00;101982.41;10253526;29;20059;-67
2022/05/15 03:31:53;;;;;;;25.80;9.18;;;;;;;10.06;100.00;101979.53;10236576;28;20062;-67
2022/05/15 03:36:55;;;;;;;26.50;9.25;;;;;;;10.17;100.00;101979.13;10252542;29;20109;-67
2022/05/15 03:41:57;;;;;;;29.55;8.68;;;;;;;10.10;100.00;101973.25;10253038;29;20061;-67
2022/05/15 03:47:00;;;;;;;24.27;8.13;;;;;;;10.02;100.00;101980.56;10252855;29;20047;-67
2022/05/15 03:52:03;;;;;;;31.05;8.82;;;;;;;10.17;100.00;101972.13;10252131;28;20051;-67
2022/05/15 03:57:06;;;;;;;29.10;8.23;;;;;;;10.17;100.00;101966.91;10252506;28;20054;-67
2022/05/15 04:02:09;;;;;;;22.17;8.48;;;;;;;10.22;100.00;101966.72;10252440;28;20051;-67
2022/05/15 04:07:12;;;;;;;22.95;7.53;;;;;;;10.12;100.00;101967.97;10251004;28;20054;-67
2022/05/15 04:12:14;;;;;;;24.75;6.93;;;;;;;10.22;100.00;101962.34;10249726;28;20055;-67
2022/05/15 04:17:16;;;;;;;37.90;10.98;;;;;;;10.17;100.00;101961.66;10251952;28;20052;-67
2022/05/15 04:22:19;;;;;;;26.75;8.15;;;;;;;10.19;100.00;101970.31;10250650;29;20047;-67
2022/05/15 04:27:21;;;;;;;29.55;8.13;;;;;;;10.35;100.00;101970.59;10250018;28;20063;-67
2022/05/15 04:32:23;;;;;;;23.35;7.07;;;;;;;10.30;100.00;101962.03;10250896;28;20490;-67
2022/05/15 04:37:26;;;;;;;22.63;7.03;;;;;;;10.39;100.00;101960.91;10251359;29;20058;-68
2022/05/15 04:42:30;;;;;;;24.67;7.60;;;;;;;10.60;100.00;101962.66;10250381;29;20125;-67
2022/05/15 04:47:33;;;;;;;22.65;7.18;;;;;;;10.42;100.00;101963.38;10251624;28;20054;-67
2022/05/15 04:52:35;;;;;;;23.88;6.75;;;;;;;10.88;100.00;101969.44;10250680;29;20521;-68
2022/05/15 04:57:38;;;;;;;22.05;7.07;;;;;;;10.97;100.00;101973.47;10250521;28;20052;-67
2022/05/15 05:02:40;;;;;;;16.35;6.22;;;;;;;11.11;100.00;101975.53;10250022;29;20078;-67
2022/05/15 05:07:45;;;;;;;33.63;9.43;;;;;;;11.46;100.00;101981.06;10250303;29;20054;-67
2022/05/15 05:12:47;;;;;;;34.00;8.40;;;;;;;11.51;100.00;101979.94;10233115;28;20058;-67
2022/05/15 05:17:50;;;;;;;20.02;7.18;;;;;;;11.61;100.00;101980.41;10250059;29;20047;-67
2022/05/15 05:22:52;;;;;;;25.05;7.15;;;;;;;11.76;100.00;101981.53;10250351;29;20051;-67
2022/05/15 05:27:55;;;;;;;24.33;7.20;;;;;;;11.80;100.00;101991.00;10248590;28;20052;-68
2022/05/15 05:32:57;;;;;;;31.55;7.70;;;;;;;12.02;100.00;101983.06;10249712;28;20051;-67
2022/05/15 05:37:59;;;;;;;29.45;7.65;;;;;;;12.19;100.00;101984.91;10249346;29;20047;-68
2022/05/15 05:43:02;;;;;;;22.08;6.88;;;;;;;12.33;100.00;101992.16;10262234;22;20502;-66
2022/05/15 05:48:05;;;;;;;26.42;8.07;;;;;;;12.46;100.00;101997.72;10264024;28;20531;-65
2022/05/15 05:53:09;;;;;;;26.75;7.70;;;;;;;12.54;100.00;101992.09;10249143;28;20062;-63
2022/05/15 05:58:12;;;;;;;22.98;7.95;;;;;;;12.70;100.00;101993.06;10248992;29;20051;-65
2022/05/15 06:08:35;;;;;;;22.88;8.45;;;;;;;12.97;99.61;101987.44;10247143;29;20050;-63
2022/05/15 06:13:39;;;;;;;27.00;8.68;;;;;;;12.97;100.00;101984.78;10247917;28;20051;-63
2022/05/15 06:18:41;;;;;;;26.67;7.57;;;;;;;13.24;100.00;101993.09;10263048;28;20055;-63
2022/05/15 06:23:43;;;;;;;25.58;7.65;;;;;;;13.50;99.69;101988.34;10248277;29;20058;-63
2022/05/15 06:28:46;;;;;;;20.20;7.07;;;;;;;13.60;100.00;101979.06;10247488;29;20055;-62
2022/05/15 06:33:48;;;;;;;17.30;7.45;;;;;;;13.64;97.35;101983.22;10246370;28;20068;-62
2022/05/15 06:38:50;;;;;;;20.08;7.45;;;;;;;13.75;97.57;101980.03;10251932;28;20050;-63
2022/05/15 06:43:54;;;;;;;28.05;8.23;;;;;;;13.95;94.11;101979.00;10253133;28;20055;-62
2022/05/15 06:48:56;;;;;;;22.33;7.35;;;;;;;14.33;94.58;101973.47;10254482;28;20054;-63
2022/05/15 06:53:58;;;;;;;18.30;7.68;;;;;;;14.52;96.39;101980.34;10254637;29;20051;-63
2022/05/15 06:59:02;;;;;;;21.48;7.80;;;;;;;14.67;94.82;101979.53;10253070;28;20478;-63
2022/05/15 07:04:04;;;;;;;22.33;7.57;;;;;;;15.55;87.22;101980.63;10254298;28;20055;-63
2022/05/15 07:09:07;;;;;;;23.70;9.07;;;;;;;16.03;83.26;101982.19;10253866;28;20054;-64
2022/05/15 07:14:09;;;;;;;27.70;8.43;;;;;;;16.70;81.29;101977.94;10253865;28;20047;-63
2022/05/15 07:19:11;;;;;;;19.35;7.22;;;;;;;17.39;76.63;101977.00;10252492;28;20043;-64
2022/05/15 07:24:14;;;;;;;36.67;9.63;;;;;;;17.07;75.15;101972.91;10253099;28;20058;-63
2022/05/15 07:29:16;;;;;;;21.75;7.03;;;;;;;17.75;75.36;101978.94;10252937;29;20055;-63
2022/05/15 07:34:19;;;;;;;19.67;8.98;;;;;;;17.70;72.08;101980.19;10252761;29;20056;-63
2022/05/15 07:39:22;;;;;;;21.40;7.65;;;;;;;18.81;70.35;101973.22;10250855;28;20062;-63
2022/05/15 07:44:24;;;;;;;17.60;7.72;;;;;;;19.10;72.21;101973.72;10252599;29;20403;-63
2022/05/15 07:49:26;;;;;;;19.67;7.22;;;;;;;19.25;68.47;101971.72;10252553;29;20051;-63
2022/05/15 07:54:29;;;;;;;19.33;9.30;;;;;;;19.60;68.66;101972.63;10251656;28;20054;-63
2022/05/15 07:59:31;;;;;;;17.80;7.75;;;;;;;19.18;72.10;101974.94;10251970;29;20048;-63
2022/05/15 08:08:00;;;;;;;19.95;7.68;;;;;;;19.35;68.68;101960.41;10252366;29;20051;-63
2022/05/15 08:09:56;;;;;;;17.15;7.85;;;;;;;20.78;66.71;101960.63;10251427;29;20059;-63
2022/05/15 08:14:59;;;;;;;17.95;7.53;;;;;;;20.89;61.93;101959.72;10252128;29;20054;-64
2022/05/15 08:25:22;;;;;;;31.35;8.18;;;;;;;20.65;61.04;101957.28;10251197;28;20549;-64
2022/05/15 08:30:24;;;;;;;15.38;7.25;;;;;;;20.44;60.01;101956.34;10250963;29;20485;-64
2022/05/15 08:35:29;;;;;;;21.50;7.82;;;;;;;21.35;58.83;101955.03;10250794;29;20413;-63
2022/05/15 08:40:44;;;;;;;17.35;6.93;;;;;;;22.97;59.04;101944.31;10251332;28;20059;-63
2022/05/15 08:46:05;;;;;;;18.35;7.45;;;;;;;22.75;55.24;101937.44;10250061;28;20044;-64
2022/05/15 08:51:10;;;;;;;21.27;6.97;;;;;;;23.23;58.01;101940.22;10250487;28;20059;-64
2022/05/15 08:56:14;;;;;;;19.23;7.00;;;;;;;22.65;53.03;101928.56;10250200;28;20482;-64
2022/05/15 09:01:20;;;;;;;20.52;6.82;;;;;;;23.46;55.07;101930.06;10248158;28;20414;-64
2022/05/15 09:06:58;;;;;;;18.80;6.88;;;;;;;22.70;55.12;101917.50;10250183;28;20055;-64
2022/05/15 09:12:18;;;;;;;14.07;5.15;;;;;;;24.23;52.56;101918.19;10248549;28;20490;-64
2022/05/15 09:17:33;;;;;;;17.42;5.03;;;;;;;24.31;52.78;101920.09;10249596;28;20375;-64
2022/05/15 09:22:55;;;;;;;14.63;5.93;;;;;;;23.48;51.24;101915.53;10248998;28;20063;-63
2022/05/15 09:28:10;;;;;;;16.63;5.50;;;;;;;25.17;49.71;101907.97;10248334;28;20051;-63
2022/05/15 09:33:29;;;;;;;11.98;4.55;;;;;;;25.58;46.74;101918.97;10248029;28;20047;-64
2022/05/15 09:38:31;;;;;;;10.27;4.47;;;;;;;25.29;42.98;101919.31;10248503;28;20043;-64
2022/05/15 09:43:35;;;;;;;12.95;5.10;;;;;;;24.65;43.67;101906.91;10249087;29;20068;-64
2022/05/15 09:48:51;;;;;;;11.18;4.30;;;;;;;25.20;41.42;101900.47;10247941;28;20058;-64
2022/05/15 09:53:55;;;;;;;22.25;4.97;;;;;;;25.08;42.74;101890.97;10249056;29;20055;-63
2022/05/15 09:59:00;;;;;;;14.27;4.35;;;;;;;25.61;40.54;101882.97;10248006;28;20055;-64
2022/05/15 10:04:08;;;;;;;8.82;3.35;;;;;;;26.25;39.84;101877.97;10248861;28;20051;-64
2022/05/15 10:09:15;;;;;;;11.98;3.83;;;;;;;27.28;38.22;101872.03;10246921;28;20047;-64
2022/05/15 10:14:27;;;;;;;10.10;3.63;;;;;;;28.41;36.49;101867.31;10248032;28;20410;-64
2022/05/15 10:19:46;;;;;;;11.55;3.80;;;;;;;27.30;38.36;101861.97;10247345;28;20056;-64
2022/05/15 10:24:49;;;;;;;13.20;3.47;;;;;;;27.68;34.79;101859.50;10247292;28;20051;-64
2022/05/15 10:30:12;;;;;;;10.88;3.50;;;;;;;27.89;36.88;101852.66;10246492;28;20058;-64
2022/05/15 10:35:17;;;;;;;9.50;3.60;;;;;;;27.62;36.61;101846.72;10246975;28;20051;-64
2022/05/15 10:40:24;;;;;;;13.35;4.22;;;;;;;27.24;37.62;101847.38;10247915;29;20065;-64
2022/05/15 10:45:37;;;;;;;11.95;3.90;;;;;;;27.57;36.05;101851.81;10247462;29;20105;-64
2022/05/15 10:50:48;;;;;;;9.68;3.42;;;;;;;27.91;34.89;101846.09;10245969;28;20145;-64
2022/05/15 11:01:32;;;;;;;6.85;2.38;;;;;;;29.23;34.67;101836.94;10246511;29;20130;-64
2022/05/15 11:06:43;;;;;;;;;;;;;;;28.19;34.05;101821.34;10246004;28;20458;-64
2022/05/15 11:12:04;;;;;;;8.23;2.47;;;;;;;30.16;33.55;101813.75;10247198;28;19930;-64
2022/05/15 11:17:28;;;;;;;10.45;2.63;;;;;;;31.17;32.42;101814.50;10247078;28;20051;-64
2022/05/15 11:22:45;;;;;;;7.10;2.50;;;;;;;30.24;31.06;101811.94;10248636;28;20051;-64
2022/05/15 11:27:49;;;;;;;6.28;2.53;;;;;;;30.38;32.49;101802.94;10252910;28;20169;-64
2022/05/15 11:32:55;;;;;;;8.73;2.70;;;;;;;28.88;31.11;101807.81;10253513;29;20062;-65
2022/05/15 11:37:57;;;;;;;5.80;2.15;;;;;;;30.10;32.27;101789.38;10253306;28;20062;-65
2022/05/15 11:43:00;;;;;;;8.40;2.90;;;;;;;30.90;29.96;101777.31;10252470;29;20063;-64
2022/05/15 11:48:19;;;;;;;9.80;2.42;;;;;;;30.49;30.23;101764.56;10251801;28;20051;-64
2022/05/15 11:53:34;;;;;;;6.53;2.45;;;;;;;31.43;28.06;101763.19;10252856;28;20130;-64
2022/05/15 11:58:41;;;;;;;8.48;2.08;;;;;;;29.76;28.39;101748.53;10252746;28;20216;-64
2022/05/15 12:04:03;;;;;;;4.95;2.10;;;;;;;31.26;27.89;101748.38;10252589;28;20055;-63
2022/05/15 12:09:19;;;;;;;4.00;1.90;;;;;;;31.19;30.21;101751.06;10252518;28;20047;-63
2022/05/15 12:14:27;;;;;;;8.05;2.67;;;;;;;30.83;30.59;101748.56;10252198;28;20057;-64
2022/05/15 12:19:32;;;;;;;8.15;2.35;;;;;;;31.64;29.93;101747.88;10252142;28;20044;-64
2022/05/15 12:24:37;;;;;;;7.55;2.13;;;;;;;30.64;28.57;101747.44;10252064;28;20062;-64
2022/05/15 12:30:12;;;;;;;7.22;1.75;;;;;;;31.55;26.56;101730.19;10250618;28;20063;-64
2022/05/15 12:35:32;;;;;;;8.68;2.20;;;;;;;30.50;27.73;101714.09;10250488;28;20047;-64
2022/05/15 12:40:42;;;;;;;6.10;1.92;;;;;;;30.64;27.09;101721.22;10250293;28;20058;-64
2022/05/15 12:45:44;;;;;;;8.73;2.28;;;;;;;31.29;25.93;101723.63;10249385;28;20063;-64
2022/05/15 12:51:06;;;;;;;9.70;2.45;;;;;;;30.23;28.55;101708.47;10250193;28;20051;-64
2022/05/15 12:56:22;;;;;;;6.68;1.73;;;;;;;30.29;26.71;101709.53;10250931;28;20474;-64
2022/05/15 13:01:30;;;;;;;8.77;2.45;;;;;;;30.70;27.29;101701.53;10250666;29;20059;-64
2022/05/15 13:06:39;;;;;;;7.25;2.45;;;;;;;31.95;26.71;101693.13;10249413;29;20051;-64
2022/05/15 13:11:48;;;;;;;6.43;1.60;;;;;;;31.76;26.82;101681.28;10250443;28;20062;-64
2022/05/15 13:16:52;;;;;;;7.93;1.87;;;;;;;31.56;27.78;101675.03;10250369;28;20047;-64
2022/05/15 13:21:54;;;;;;;13.32;2.38;;;;;;;31.03;26.24;101678.41;10250001;28;20109;-64
2022/05/15 13:26:58;;;;;;;4.93;2.05;;;;;;;30.67;25.11;101672.19;10249896;28;20058;-64
2022/05/15 13:32:02;;;;;;;5.28;2.30;;;;;;;29.83;26.72;101673.06;10248686;28;20057;-64
2022/05/15 13:37:11;;;;;;;5.82;1.88;;;;;;;30.61;25.36;101662.16;10248489;28;20051;-64
2022/05/15 13:48:00;;;;;;;6.80;1.88;;;;;;;30.82;26.22;101666.66;10247352;29;20040;-64
2022/05/15 13:53:42;;;;;;;4.72;1.83;;;;;;;29.45;25.98;101660.66;10249185;28;20135;-65
2022/05/15 13:58:53;;;;;;;7.15;2.40;;;;;;;31.24;27.09;101653.91;10248227;29;20130;-64
2022/05/15 14:03:58;;;;;;;4.78;1.60;;;;;;;31.48;26.25;101638.94;10247772;28;20054;-64
2022/05/15 14:09:08;;;;;;;4.28;1.83;;;;;;;30.31;26.96;101632.69;10247581;29;20047;-64
2022/05/15 14:14:14;;;;;;;6.75;2.20;;;;;;;29.59;26.92;101634.63;10248130;28;20494;-64
2022/05/15 14:19:18;;;;;;;5.30;1.85;;;;;;;32.72;25.62;101633.00;10247926;28;20047;-64
2022/05/15 14:24:20;;;;;;;4.55;1.85;;;;;;;32.46;26.96;101639.31;10247262;28;20047;-64
2022/05/15 14:29:22;;;;;;;6.40;1.83;;;;;;;30.07;26.39;101631.28;10247699;29;20398;-64
2022/05/15 14:34:25;;;;;;;4.00;1.85;;;;;;;30.63;27.40;101626.84;10248135;28;20055;-64
2022/05/15 14:39:28;;;;;;;7.38;2.22;;;;;;;31.21;25.70;101619.16;10248000;29;20051;-64
2022/05/15 14:44:31;;;;;;;3.85;1.73;;;;;;;29.34;25.53;101611.78;10247323;28;20078;-63
2022/05/15 14:49:34;;;;;;;6.07;1.65;;;;;;;29.36;25.57;101598.94;10246560;28;20054;-63
2022/05/15 14:54:37;;;;;;;4.00;1.17;;;;;;;30.56;26.27;101597.09;10246464;28;20055;-63
2022/05/15 14:59:42;;;;;;;4.13;1.95;;;;;;;29.52;26.78;101595.13;10252321;28;20052;-64
2022/05/15 15:04:45;;;;;;;5.68;1.70;;;;;;;30.01;27.51;101592.44;10254465;28;20055;-64
2022/05/15 15:09:48;;;;;;;6.43;2.20;;;;;;;29.30;27.72;101583.53;10254138;29;20051;-64
2022/05/15 15:14:50;;;;;;;6.75;1.95;;;;;;;29.45;27.45;101582.44;10254091;28;20082;-64
2022/05/15 15:19:53;;;;;;;7.22;2.05;;;;;;;29.58;27.91;101573.59;10253292;28;20509;-64
2022/05/15 15:24:55;;;;;;;7.20;2.20;;;;;;;29.02;26.61;101562.72;10252310;29;20058;-64
2022/05/15 15:29:57;;;;;;;5.47;1.70;;;;;;;28.87;26.82;101565.44;10240848;29;20058;-64
2022/05/15 15:35:00;;;;;;;6.05;1.67;;;;;;;29.17;25.46;101562.66;10253451;28;20131;-64
2022/05/15 15:40:02;;;;;;;5.72;1.73;;;;;;;28.69;26.38;101553.22;10253508;29;20051;-64
2022/05/15 15:45:07;;;;;;;3.63;1.58;;;;;;;28.42;26.80;101553.91;10252890;29;20062;-64
2022/05/15 15:50:10;;;;;;;5.47;1.80;;;;;;;29.08;27.67;101543.06;10252062;28;20518;-63
2022/05/15 15:55:13;;;;;;;5.45;1.42;;;;;;;28.88;26.23;101532.91;10251578;28;20058;-64
2022/05/15 16:00:16;;;;;;;3.00;1.70;;;;;;;28.99;28.32;101526.19;10251864;28;20512;-64
2022/05/15 16:05:19;;;;;;;4.80;1.90;;;;;;;27.62;28.49;101523.97;10251917;28;20406;-64
2022/05/15 16:10:22;;;;;;;7.10;1.48;;;;;;;27.41;27.98;101517.44;10252689;28;20052;-64
2022/05/15 16:15:25;;;;;;;7.85;2.78;;;;;;;26.96;29.27;101512.91;10252184;29;20055;-64
2022/05/15 16:20:38;;;;;;;4.85;1.60;;;;;;;27.57;29.49;101512.94;10251499;29;20059;-64
2022/05/15 16:25:40;;;;;;;4.78;1.48;;;;;;;27.63;29.20;101503.31;10250700;28;20051;-64
2022/05/15 16:30:43;;;;;;;6.10;1.92;;;;;;;27.21;30.02;101492.06;10251634;29;20043;-64
2022/05/15 16:35:49;;;;;;;9.10;1.70;;;;;;;26.80;29.91;101481.66;10250465;28;20062;-64
2022/05/15 16:40:52;;;;;;;4.38;1.70;;;;;;;26.81;30.44;101473.38;10251459;28;20134;-64
2022/05/15 16:45:54;;;;;;;6.63;1.88;;;;;;;26.91;29.82;101470.47;10250457;28;20513;-63
2022/05/15 16:50:58;;;;;;;4.80;2.03;;;;;;;26.66;30.96;101475.16;10251017;28;20055;-64
2022/05/15 16:56:01;;;;;;;4.13;1.65;;;;;;;26.53;30.74;101465.00;10249848;29;20078;-64
2022/05/15 17:01:04;;;;;;;5.15;2.38;;;;;;;26.61;31.72;101472.16;10250795;28;20059;-64
2022/05/15 17:06:08;;;;;;;6.15;1.95;;;;;;;26.31;32.40;101469.31;10250572;28;20055;-63
2022/05/15 17:11:11;;;;;;;4.82;1.90;;;;;;;26.39;32.21;101463.88;10249916;29;20047;-63
2022/05/15 17:16:13;;;;;;;8.43;2.17;;;;;;;26.33;32.50;101465.44;10249483;29;20051;-63
2022/05/15 17:21:16;;;;;;;6.65;2.25;;;;;;;26.33;33.74;101452.00;10253404;28;20051;-64
2022/05/15 17:26:18;;;;;;;6.22;2.00;;;;;;;26.33;32.85;101453.88;10248007;28;20055;-64
2022/05/15 17:36:43;;;;;;;3.95;1.73;;;;;;;25.76;34.63;101436.13;10248077;28;20506;-62
2022/05/15 17:41:48;;;;;;;4.15;1.85;;;;;;;25.51;35.75;101438.88;10248498;28;20397;-63
2022/05/15 17:46:50;;;;;;;4.95;2.13;;;;;;;25.32;37.04;101428.53;10247135;28;20540;-63
2022/05/15 17:51:53;;;;;;;22.30;2.10;;;;;;;25.15;37.45;101427.66;10248572;29;20509;-63
2022/05/15 17:56:55;;;;;;;9.75;1.92;;;;;;;25.04;37.25;101428.88;10260696;22;20060;-70
2022/05/15 18:01:58;;;;;;;8.02;2.53;;;;;;;24.91;37.76;101432.03;10247143;28;20401;-70
2022/05/15 18:07:00;;;;;;;11.23;2.20;;;;;;;24.67;38.45;101422.16;10247588;28;20043;-70
2022/05/15 18:12:06;;;;;;;6.85;2.08;;;;;;;24.44;38.88;101416.56;10247595;29;20093;-70
2022/05/15 18:17:09;;;;;;;7.43;2.10;;;;;;;24.15;40.01;101406.28;10248597;29;20043;-70
2022/05/15 18:22:12;;;;;;;7.53;2.53;;;;;;;23.82;41.64;101411.50;10248438;28;20047;-70
2022/05/15 18:27:16;;;;;;;4.70;2.13;;;;;;;23.74;41.74;101418.47;10248207;28;20047;-70
2022/05/15 18:32:19;;;;;;;7.82;1.92;;;;;;;23.60;42.94;101421.72;10248635;28;20055;-70
2022/05/15 18:37:22;;;;;;;7.70;2.55;;;;;;;23.23;42.58;101413.97;10255212;29;20044;-70
2022/05/15 18:42:25;;;;;;;7.45;1.70;;;;;;;23.03;41.69;101415.97;10254646;28;20402;-69
2022/05/15 18:47:30;;;;;;;7.45;1.67;;;;;;;22.81;42.69;101408.28;10253695;28;20047;-70
2022/05/15 18:57:56;;;;;;;5.22;2.42;;;;;;;21.81;48.05;101410.00;10253280;28;20059;-69
2022/05/15 19:02:58;;;;;;;8.77;2.47;;;;;;;21.36;49.65;101409.84;10253598;29;20055;-70
2022/05/15 19:08:00;;;;;;;6.28;1.83;;;;;;;20.93;51.31;101410.19;10254934;28;20051;-70
2022/05/15 19:13:03;;;;;;;12.93;3.08;;;;;;;20.57;52.30;101414.34;10253453;29;20059;-69
2022/05/15 19:18:06;;;;;;;7.38;1.90;;;;;;;20.45;53.58;101412.78;10247001;28;20060;-69
2022/05/15 19:23:10;;;;;;;8.63;1.90;;;;;;;20.13;55.33;101414.69;10213618;28;20090;-69
2022/05/15 19:28:12;;;;;;;5.97;2.25;;;;;;;20.02;54.78;101420.94;10218178;28;20046;-69
2022/05/15 19:33:15;;;;;;;4.57;2.20;;;;;;;19.75;56.81;101416.19;10251288;29;20406;-69
2022/05/15 19:38:17;;;;;;;6.95;2.42;;;;;;;19.42;55.72;101419.94;10253422;28;20058;-69
2022/05/15 19:43:20;;;;;;;7.97;2.78;;;;;;;19.35;57.23;101427.56;10252694;28;20055;-69
2022/05/15 19:48:22;;;;;;;5.68;2.33;;;;;;;19.19;56.64;101427.19;10251417;29;20050;-69
2022/05/15 19:53:27;;;;;;;4.35;1.90;;;;;;;18.88;58.64;101446.50;10247106;28;20056;-69
2022/05/15 19:58:30;;;;;;;7.65;2.67;;;;;;;18.76;58.02;101455.41;10212854;29;20067;-69
2022/05/15 20:03:32;;;;;;;7.05;2.60;;;;;;;18.64;60.01;101459.91;10218321;29;20054;-69
2022/05/15 20:14:06;;;;;;;7.35;2.10;;;;;;;18.10;62.73;101461.56;10250459;28;20058;-69
2022/05/15 20:19:09;;;;;;;5.13;2.42;;;;;;;18.11;61.55;101463.25;10251571;28;20047;-69
2022/05/15 20:24:12;;;;;;;8.57;2.22;;;;;;;17.94;62.82;101463.75;10250850;29;20055;-69
2022/05/15 20:29:15;;;;;;;6.18;2.20;;;;;;;18.03;63.12;101468.31;10249583;28;20043;-69
2022/05/15 20:34:25;;;;;;;7.03;2.15;;;;;;;17.79;63.78;101468.38;10250493;29;20055;-69
2022/05/15 20:39:28;;;;;;;7.68;2.38;;;;;;;17.75;63.50;101465.13;10251582;28;20055;-68
2022/05/15 20:44:32;;;;;;;3.85;2.28;;;;;;;17.43;64.80;101467.59;10248825;28;20051;-68
2022/05/15 20:49:34;;;;;;;9.00;2.90;;;;;;;17.44;65.38;101472.75;10243387;28;20047;-69
2022/05/15 20:54:38;;;;;;;8.13;2.10;;;;;;;17.35;65.37;101467.31;10226413;28;20055;-68
2022/05/15 20:59:41;;;;;;;5.32;2.40;;;;;;;17.23;66.81;101463.78;10247481;28;20131;-68
2022/05/15 21:04:44;;;;;;;10.35;2.45;;;;;;;17.24;65.70;101468.13;10249977;28;20055;-68
2022/05/15 21:09:46;;;;;;;9.82;2.92;;;;;;;16.97;66.68;101471.88;10238510;28;20047;-68
2022/05/15 21:14:48;;;;;;;5.55;2.53;;;;;;;16.97;66.38;101481.63;10213135;29;20052;-68
2022/05/15 21:19:51;;;;;;;5.50;2.50;;;;;;;16.83;67.21;101488.72;10211126;29;20058;-68
2022/05/15 21:24:53;;;;;;;14.68;3.03;;;;;;;16.76;67.91;101487.50;10212504;28;20055;-68
2022/05/15 21:29:55;;;;;;;3.92;1.77;;;;;;;16.70;68.62;101487.94;10248760;28;20047;-68
2022/05/15 21:34:58;;;;;;;11.15;3.20;;;;;;;16.61;69.45;101491.22;10249759;29;20063;-68
2022/05/15 21:45:21;;;;;;;4.32;1.80;;;;;;;16.36;69.30;101487.72;10249578;28;20051;-68
2022/05/15 21:50:23;;;;;;;8.75;3.13;;;;;;;16.38;69.00;101477.88;10249382;29;20066;-68
2022/05/15 21:55:26;;;;;;;7.10;2.45;;;;;;;16.35;69.38;101480.72;10220388;29;20062;-68
2022/05/15 22:00:31;;;;;;;8.05;2.08;;;;;;;16.31;69.84;101460.78;10209411;29;20055;-68
2022/05/15 22:05:33;;;;;;;10.10;3.63;;;;;;;16.37;70.08;101467.41;10208535;29;20402;-68
2022/05/15 22:10:37;;;;;;;7.57;2.63;;;;;;;16.46;69.79;101470.25;10218292;28;20047;-68
2022/05/15 22:15:40;;;;;;;6.72;2.33;;;;;;;16.18;70.96;101457.31;10248069;28;20379;-68
2022/05/15 22:20:42;;;;;;;8.00;2.60;;;;;;;16.37;69.90;101451.53;10247866;29;20043;-67
2022/05/15 22:25:45;;;;;;;6.97;2.22;;;;;;;16.34;70.69;101457.91;10214677;28;20051;-67
2022/05/15 22:30:48;;;;;;;8.75;2.03;;;;;;;16.18;71.21;101437.00;10207042;29;20051;-68
2022/05/15 22:35:52;;;;;;;4.18;2.05;;;;;;;16.24;70.66;101428.66;10207437;29;20052;-68
2022/05/15 22:40:55;;;;;;;4.88;2.05;;;;;;;16.24;70.40;101412.81;10207311;29;20048;-67
2022/05/15 22:45:58;;;;;;;7.95;2.08;;;;;;;16.24;71.08;101404.88;10218523;29;20047;-67
2022/05/15 22:51:01;;;;;;;8.45;2.40;;;;;;;16.01;70.51;101401.22;10246575;29;20053;-68
2022/05/15 22:56:03;;;;;;;6.93;2.78;;;;;;;16.35;68.72;101401.44;10246816;28;20494;-67
2022/05/15 23:01:06;;;;;;;8.40;3.28;;;;;;;16.26;70.68;101408.25;10247013;29;20055;-67
2022/05/15 23:11:48;;;;;;;10.73;2.72;;;;;;;16.03;70.90;101394.03;10221487;28;20502;-68
2022/05/15 23:16:50;;;;;;;8.30;2.40;;;;;;;15.87;72.97;101389.00;10244755;28;20391;-67
2022/05/15 23:21:53;;;;;;;8.38;3.97;;;;;;;15.87;72.19;101390.78;10253747;29;20054;-68
2022/05/15 23:26:55;;;;;;;8.95;3.17;;;;;;;15.96;71.83;101382.22;10253652;28;20055;-68
2022/05/15 23:31:57;;;;;;;6.88;2.90;;;;;;;15.97;70.04;101386.56;10232440;29;20067;-67
2022/05/15 23:36:59;;;;;;;10.30;2.72;;;;;;;15.96;70.32;101374.31;10219166;29;20047;-68
2022/05/15 23:42:02;;;;;;;8.90;3.45;;;;;;;15.71;73.43;101370.69;10253329;29;20055;-67
2022/05/15 23:47:05;;;;;;;6.43;2.65;;;;;;;15.81;73.22;101381.50;10231032;29;20052;-67
2022/05/15 23:52:09;;;;;;;11.25;3.38;;;;;;;15.75;74.19;101380.16;10211580;29;20517;-67
2022/05/15 23:57:13;;;;;;;7.35;2.05;;;;;;;15.62;74.99;101384.56;10211341;28;20406;-68
